Middle River, Maryland
Current Conditions -  °F | °C
As of 4:50 PM on Tuesday 27 Jan 2015 (Local Time) from KMTN Reporting Station
Few Clouds Few Clouds  
Wind Chill: 25°   Ceiling: Unl
Heat Index: 36°   Visibility: 10mi
Dew Point: 21°   Wind: 21mph
Humidity: 56%   Direction: 270°W
Pressure: 29.81"   Gusts: NA
Location:  39.34°N, 76.4°W
Report Text: KMTN 272150Z 27018KT 10SM FEW200 02/M06 A2981
Loading
Personal Weather Stations






























Interactive Weather Map New forecast layout! Learn more

10-Day Weather Forecast

Advertisements
Track Severe Weather on mobile